createdAt,value
2018-07-11T00:01:55.874Z,100400.98
2018-07-11T00:04:34.733Z,100403.79
2018-07-11T00:07:03.317Z,100400.17
2018-07-11T00:09:32.384Z,100401.45
2018-07-11T00:12:00.992Z,100400.88
2018-07-11T00:17:06.308Z,100405.44
2018-07-11T00:19:35.812Z,100408.47
2018-07-11T00:22:05.172Z,100404.34
2018-07-11T00:24:34.115Z,100404.06
2018-07-11T00:27:02.795Z,100405.53
2018-07-11T00:29:31.728Z,100406.91
2018-07-11T00:34:35.401Z,100406.93
2018-07-11T00:37:04.067Z,100406.83
2018-07-11T00:39:33.236Z,100402.32
2018-07-11T00:42:06.832Z,100401.36
2018-07-11T00:44:35.581Z,100406.06
2018-07-11T00:47:10.529Z,100395.28
2018-07-11T00:49:39.607Z,100395.65
2018-07-11T00:52:13.225Z,100392.00
2018-07-11T00:54:42.400Z,100395.26
2018-07-11T00:57:11.058Z,100393.92
2018-07-11T00:59:48.398Z,100394.02
2018-07-11T01:02:17.287Z,100392.63
2018-07-11T01:04:52.087Z,100392.63
2018-07-11T01:07:20.699Z,100402.79
2018-07-11T01:09:50.609Z,100406.30
2018-07-11T01:12:19.835Z,100405.68
2018-07-11T01:14:49.012Z,100408.82
2018-07-11T01:17:22.842Z,100411.57
2018-07-11T01:19:55.907Z,100411.20
2018-07-11T01:22:24.839Z,100410.02
2018-07-11T01:24:53.407Z,100414.23
2018-07-11T01:27:21.924Z,100417.03
2018-07-11T01:29:50.825Z,100418.37
2018-07-11T01:32:19.416Z,100420.03
2018-07-11T01:34:50.770Z,100417.43
2018-07-11T01:37:22.693Z,100413.58
2018-07-11T01:39:51.276Z,100420.57
2018-07-11T01:42:26.475Z,100416.58
2018-07-11T01:44:55.384Z,100415.11
2018-07-11T01:47:24.528Z,100416.66
2018-07-11T01:49:53.115Z,100417.38
2018-07-11T01:52:32.932Z,100418.08
2018-07-11T01:55:01.522Z,100422.22
2018-07-11T01:57:30.683Z,100413.16
2018-07-11T02:00:04.055Z,100416.23
2018-07-11T02:02:32.680Z,100414.45
2018-07-11T02:05:02.285Z,100418.92
2018-07-11T02:07:30.891Z,100419.92
2018-07-11T02:09:59.468Z,100414.45
2018-07-11T02:12:29.193Z,100409.75
2018-07-11T02:15:06.696Z,100410.70
2018-07-11T02:17:37.222Z,100413.88
2018-07-11T02:20:12.851Z,100413.17
2018-07-11T02:22:45.545Z,100413.66
2018-07-11T02:25:15.575Z,100413.58
2018-07-11T02:27:46.296Z,100412.67
2018-07-11T02:30:14.997Z,100421.28
2018-07-11T02:32:48.428Z,100419.48
2018-07-11T02:35:17.170Z,100422.76
2018-07-11T02:37:45.731Z,100421.16
2018-07-11T02:40:15.887Z,100420.81
2018-07-11T02:42:44.513Z,100425.28
2018-07-11T02:45:13.796Z,100422.00
2018-07-11T02:47:43.733Z,100430.22
2018-07-11T02:50:15.604Z,100432.64
2018-07-11T02:52:50.007Z,100424.09
2018-07-11T02:55:20.251Z,100425.33
2018-07-11T02:57:49.265Z,100423.87
2018-07-11T03:00:19.264Z,100422.64
2018-07-11T03:02:47.881Z,100432.98
2018-07-11T03:05:16.865Z,100432.55
2018-07-11T03:07:48.457Z,100424.01
2018-07-11T03:10:17.964Z,100429.09
2018-07-11T03:12:53.231Z,100430.18
2018-07-11T03:15:22.289Z,100430.48
2018-07-11T03:17:50.862Z,100430.59
2018-07-11T03:20:20.478Z,100432.43
2018-07-11T03:25:22.735Z,100432.33
2018-07-11T03:27:51.327Z,100434.54
2018-07-11T03:31:11.744Z,100434.30
2018-07-11T03:33:58.227Z,100444.47
2018-07-11T03:36:27.268Z,100447.61
2018-07-11T03:38:58.954Z,100445.70
2018-07-11T03:41:28.332Z,100452.22
2018-07-11T03:43:56.930Z,100445.56
2018-07-11T03:46:25.546Z,100450.78
2018-07-11T03:48:54.990Z,100452.58
2018-07-11T03:51:36.017Z,100453.16
2018-07-11T03:54:09.636Z,100451.72
2018-07-11T03:56:38.259Z,100455.00
2018-07-11T03:59:06.841Z,100451.36
2018-07-11T04:01:47.140Z,100450.54
2018-07-11T04:04:15.942Z,100459.23
2018-07-11T04:06:44.549Z,100454.16
2018-07-11T04:09:16.390Z,100457.89
2018-07-11T04:11:44.906Z,100464.28
2018-07-11T04:14:17.267Z,100467.18
2018-07-11T04:16:46.216Z,100461.73
2018-07-11T04:19:14.755Z,100463.41
2018-07-11T04:21:43.296Z,100464.86
2018-07-11T04:24:12.532Z,100466.63
2018-07-11T04:26:41.181Z,100465.17
2018-07-11T04:29:09.926Z,100470.36
2018-07-11T04:31:39.173Z,100473.22
2018-07-11T04:34:08.271Z,100474.08
2018-07-11T04:36:36.939Z,100469.84
2018-07-11T04:39:12.057Z,100470.09
2018-07-11T04:41:41.514Z,100474.69
2018-07-11T04:44:12.189Z,100473.97
2018-07-11T04:46:41.388Z,100477.98
2018-07-11T04:49:12.909Z,100480.03
2018-07-11T04:51:48.058Z,100476.89
2018-07-11T04:54:19.149Z,100477.98
2018-07-11T04:56:53.656Z,100472.03
2018-07-11T04:59:22.239Z,100481.54
2018-07-11T05:01:54.739Z,100486.41
2018-07-11T05:04:23.332Z,100482.19
2018-07-11T05:06:51.986Z,100486.03
2018-07-11T05:09:21.528Z,100495.37
2018-07-11T05:11:54.710Z,100491.62
2018-07-11T05:14:23.762Z,100500.95
2018-07-11T05:16:52.435Z,100495.13
2018-07-11T05:19:21.070Z,100488.08
2018-07-11T05:21:49.749Z,100487.84
2018-07-11T05:25:29.653Z,100486.96
2018-07-11T05:27:59.017Z,100497.91
2018-07-11T05:30:27.705Z,100506.50
2018-07-11T05:32:56.323Z,100506.13
2018-07-11T05:35:25.376Z,100506.56
2018-07-11T05:37:54.010Z,100505.59
2018-07-11T05:40:23.611Z,100517.19
2018-07-11T05:42:52.590Z,100507.13
2018-07-11T05:45:21.190Z,100510.59
2018-07-11T05:47:49.943Z,100509.41
2018-07-11T05:50:18.847Z,100515.83
2018-07-11T05:52:47.516Z,100520.19
2018-07-11T05:55:16.181Z,100517.63
2018-07-11T05:57:46.066Z,100520.05
2018-07-11T06:00:14.757Z,100518.81
2018-07-11T06:02:44.430Z,100513.25
2018-07-11T06:05:13.311Z,100511.64
2018-07-11T06:07:41.834Z,100514.55
2018-07-11T06:10:12.493Z,100517.82
2018-07-11T06:12:42.605Z,100510.92
2018-07-11T06:15:16.883Z,100517.97
2018-07-11T06:17:45.605Z,100508.43
2018-07-11T06:20:14.191Z,100509.36
2018-07-11T06:22:42.730Z,100509.25
2018-07-11T06:25:22.383Z,100510.16
2018-07-11T06:27:50.910Z,100507.83
2018-07-11T06:30:19.467Z,100518.72
2018-07-11T06:34:54.436Z,100516.22
2018-07-11T06:37:27.548Z,100522.80
2018-07-11T06:39:56.286Z,100523.22
2018-07-11T06:42:25.203Z,100527.33
2018-07-11T06:44:53.791Z,100528.47
2018-07-11T06:47:22.885Z,100536.39
2018-07-11T06:49:51.745Z,100540.03
2018-07-11T06:52:20.279Z,100536.89
2018-07-11T06:54:49.466Z,100539.63
2018-07-11T06:57:18.317Z,100538.14
2018-07-11T06:59:47.920Z,100536.02
2018-07-11T07:02:16.501Z,100536.17
2018-07-11T07:04:45.321Z,100533.80
2018-07-11T07:07:13.889Z,100534.28
2018-07-11T07:09:52.372Z,100528.70
2018-07-11T07:14:55.600Z,100541.68
2018-07-11T07:17:24.209Z,100539.27
2018-07-11T07:19:53.023Z,100545.37
2018-07-11T07:24:46.794Z,100544.57
2018-07-11T07:27:16.124Z,100545.98
2018-07-11T07:29:44.689Z,100554.78
2018-07-11T07:32:18.148Z,100548.25
2018-07-11T07:34:47.001Z,100548.25
2018-07-11T07:37:15.605Z,100552.02
2018-07-11T07:39:44.191Z,100551.17
2018-07-11T07:42:13.273Z,100551.97
2018-07-11T12:50:45.999Z,100525.53
2018-07-11T12:53:18.183Z,100519.80
2018-07-11T12:55:48.967Z,100517.76
2018-07-11T12:58:19.050Z,100515.22
2018-07-11T13:00:49.303Z,100516.19
2018-07-11T13:03:18.093Z,100520.25
2018-07-11T13:05:46.923Z,100516.80
2018-07-11T13:08:28.545Z,100514.59
2018-07-11T13:10:57.425Z,100509.93
2018-07-11T13:13:27.626Z,100515.25
2018-07-11T13:15:56.292Z,100516.53
2018-07-11T13:18:24.825Z,100520.31
2018-07-11T13:20:53.920Z,100516.23
2018-07-11T13:23:22.493Z,100508.66
2018-07-11T13:25:51.092Z,100515.78
2018-07-11T13:28:20.079Z,100514.69
2018-07-11T13:30:54.880Z,100510.76
2018-07-11T13:33:23.898Z,100514.23
2018-07-11T13:35:54.673Z,100514.30
2018-07-11T13:38:23.220Z,100514.94
2018-07-11T13:40:51.903Z,100507.58
2018-07-11T13:43:20.717Z,100507.89
2018-07-11T13:45:49.484Z,100509.90
2018-07-11T13:48:18.071Z,100513.77
2018-07-11T13:50:48.192Z,100511.69
2018-07-11T13:53:16.813Z,100513.23
2018-07-11T13:55:45.446Z,100515.41
2018-07-11T13:58:14.629Z,100516.62
2018-07-11T14:00:44.004Z,100519.78
2018-07-11T14:03:12.681Z,100514.41
2018-07-11T14:05:42.590Z,100525.16
2018-07-11T14:08:16.159Z,100528.83
2018-07-11T14:10:44.802Z,100523.88
2018-07-11T14:13:13.735Z,100529.42
2018-07-11T14:15:42.328Z,100522.53
2018-07-11T14:18:15.820Z,100525.41
2018-07-11T14:20:44.699Z,100523.23
2018-07-11T14:23:13.256Z,100521.89
2018-07-11T14:25:42.556Z,100529.59
2018-07-11T14:28:11.622Z,100531.61
2018-07-11T14:30:42.160Z,100536.33
2018-07-11T14:33:10.935Z,100536.83
2018-07-11T14:35:46.289Z,100525.77
2018-07-11T14:38:14.895Z,100529.61
2018-07-11T14:40:44.181Z,100529.72
2018-07-11T14:43:18.299Z,100531.23
2018-07-11T14:45:47.040Z,100529.22
2018-07-11T14:48:16.299Z,100530.25
2018-07-11T14:50:45.687Z,100534.42
2018-07-11T14:53:14.474Z,100530.56
2018-07-11T14:55:43.341Z,100528.23
2018-07-11T14:58:12.324Z,100532.94
2018-07-11T15:00:44.310Z,100530.95
2018-07-11T15:03:12.924Z,100531.61
2018-07-11T15:05:42.827Z,100533.11
2018-07-11T15:08:12.271Z,100532.95
2018-07-11T15:10:41.505Z,100535.97
2018-07-11T15:13:10.402Z,100533.80
2018-07-11T15:15:39.055Z,100535.13
2018-07-11T15:18:07.600Z,100533.62
2018-07-11T15:20:36.780Z,100530.58
2018-07-11T15:23:05.416Z,100532.28
2018-07-11T15:25:34.075Z,100528.44
2018-07-11T15:28:04.667Z,100522.73
2018-07-11T15:30:33.213Z,100523.90
2018-07-11T15:33:01.792Z,100525.91
2018-07-11T15:35:32.205Z,100524.06
2018-07-11T15:38:01.334Z,100517.84
2018-07-11T15:40:30.825Z,100520.04
2018-07-11T15:43:00.207Z,100521.04
2018-07-11T15:45:29.029Z,100522.07
2018-07-11T15:47:57.717Z,100525.77
2018-07-11T15:50:26.675Z,100519.55
2018-07-11T15:52:55.785Z,100524.21
2018-07-11T15:55:26.188Z,100531.91
2018-07-11T15:57:56.959Z,100530.55
2018-07-11T16:00:30.930Z,100536.58
2018-07-11T16:03:04.187Z,100529.98
2018-07-11T16:05:33.180Z,100527.97
2018-07-11T16:08:05.627Z,100528.13
2018-07-11T16:10:48.103Z,100527.09
2018-07-11T16:13:23.302Z,100532.22
2018-07-11T16:15:52.421Z,100532.02
2018-07-11T16:18:21.091Z,100534.34
2018-07-11T16:20:58.378Z,100536.16
2018-07-11T16:23:27.489Z,100526.13
2018-07-11T16:25:56.127Z,100530.66
2018-07-11T16:28:24.844Z,100530.34
2018-07-11T16:30:54.984Z,100529.69
2018-07-11T16:33:23.739Z,100533.86
2018-07-11T16:35:56.143Z,100532.32
2018-07-11T16:38:25.139Z,100535.80
2018-07-11T16:40:54.624Z,100537.99
2018-07-11T16:43:23.258Z,100539.83
2018-07-11T16:45:53.138Z,100541.14
2018-07-11T16:48:24.227Z,100533.29
2018-07-11T16:50:53.255Z,100541.35
2018-07-11T16:53:22.303Z,100535.14
2018-07-11T16:55:51.854Z,100529.96
2018-07-11T16:58:26.157Z,100533.84
2018-07-11T17:00:55.523Z,100539.37
2018-07-11T17:03:25.748Z,100538.91
2018-07-11T17:06:09.692Z,100535.50
2018-07-11T17:08:43.910Z,100534.09
2018-07-11T17:11:22.502Z,100537.17
2018-07-11T17:14:00.050Z,100530.52
2018-07-11T17:16:50.414Z,100530.44
2018-07-11T17:19:27.769Z,100523.56
2018-07-11T17:21:56.741Z,100530.66
2018-07-11T17:24:25.401Z,100523.23
2018-07-11T17:26:56.574Z,100525.48
2018-07-11T17:29:33.947Z,100522.38
2018-07-11T17:32:07.161Z,100519.48
2018-07-11T17:34:47.579Z,100516.13
2018-07-11T17:37:19.617Z,100526.34
2018-07-11T17:39:53.655Z,100528.55
2018-07-11T17:42:25.457Z,100527.72
2018-07-11T17:45:06.444Z,100527.11
2018-07-11T17:47:50.390Z,100527.84
2018-07-11T17:50:19.355Z,100528.59
2018-07-11T17:53:00.691Z,100529.60
2018-07-11T17:55:35.389Z,100529.77
2018-07-11T17:58:10.826Z,100528.37
2018-07-11T18:00:59.383Z,100537.56
2018-07-11T18:03:53.014Z,100535.32
2018-07-11T18:07:29.760Z,100537.51
2018-07-11T18:10:07.821Z,100537.88
2018-07-11T18:12:51.428Z,100539.14
2018-07-11T18:15:31.356Z,100539.91
2018-07-11T18:18:19.757Z,100539.64
2018-07-11T18:21:39.799Z,100537.62
2018-07-11T18:26:22.200Z,100531.66
2018-07-11T18:29:25.686Z,100523.34
2018-07-11T18:36:30.101Z,100534.03
2018-07-11T18:39:18.350Z,100530.76
2018-07-11T18:43:00.785Z,100532.37
2018-07-11T18:45:39.333Z,100535.34
2018-07-11T18:48:18.689Z,100538.30
2018-07-11T18:51:00.400Z,100539.23
2018-07-11T18:54:20.784Z,100528.93
2018-07-11T18:57:10.612Z,100533.19
2018-07-11T19:00:06.035Z,100535.02
2018-07-11T19:03:16.639Z,100534.66
2018-07-11T19:07:55.868Z,100543.48
2018-07-11T19:11:02.351Z,100544.13
2018-07-11T19:13:38.860Z,100538.94
2018-07-11T19:17:50.780Z,100542.81
2018-07-11T19:23:35.008Z,100532.12
2018-07-11T19:31:03.589Z,100537.06
2018-07-11T19:33:43.807Z,100540.84
2018-07-11T19:36:23.658Z,100544.61
2018-07-11T19:39:01.324Z,100547.23
2018-07-11T19:43:44.232Z,100547.70
2018-07-11T19:46:54.243Z,100554.00
2018-07-11T19:51:39.807Z,100552.88
2018-07-11T19:56:27.541Z,100556.06
2018-07-11T19:58:56.181Z,100553.24
2018-07-11T20:01:28.365Z,100558.61
2018-07-11T20:03:57.295Z,100556.28
2018-07-11T20:06:26.174Z,100556.22
2018-07-11T20:08:55.103Z,100554.25
2018-07-11T20:11:25.884Z,100560.41
2018-07-11T20:13:54.984Z,100570.81
2018-07-11T20:16:24.467Z,100564.35
2018-07-11T20:18:53.260Z,100572.48
2018-07-11T20:21:22.424Z,100566.88
2018-07-11T20:23:51.233Z,100565.38
2018-07-11T20:26:20.905Z,100568.36
2018-07-11T20:28:49.900Z,100565.38
2018-07-11T20:33:46.319Z,100559.77
2018-07-11T20:36:20.911Z,100557.09
2018-07-11T20:38:49.811Z,100560.52
2018-07-11T20:41:18.396Z,100559.77
2018-07-11T20:43:47.385Z,100559.52
2018-07-11T20:46:16.273Z,100561.86
2018-07-11T20:48:45.296Z,100559.58
2018-07-11T20:51:15.257Z,100556.20
2018-07-11T20:53:44.095Z,100555.56
2018-07-11T20:56:12.644Z,100551.55
2018-07-11T20:58:52.296Z,100559.25
2018-07-11T21:01:32.065Z,100553.15
2018-07-11T21:06:16.158Z,100559.51
2018-07-11T21:12:08.191Z,100558.49
2018-07-11T21:15:20.417Z,100571.72
2018-07-11T21:20:11.817Z,100569.05
2018-07-11T21:22:40.815Z,100576.86
2018-07-11T21:25:09.495Z,100578.73
2018-07-11T21:27:38.648Z,100576.55
2018-07-11T21:30:07.228Z,100573.97
2018-07-11T21:32:35.805Z,100568.63
2018-07-11T21:35:04.876Z,100565.05
2018-07-11T21:37:36.271Z,100561.28
2018-07-11T21:40:06.104Z,100567.59
2018-07-11T21:42:35.128Z,100568.20
2018-07-11T21:45:07.047Z,100565.68
2018-07-11T21:47:35.556Z,100561.28
2018-07-11T21:50:06.005Z,100563.95
2018-07-11T21:52:34.599Z,100570.27
2018-07-11T21:55:03.216Z,100567.27
2018-07-11T21:57:32.148Z,100570.33
2018-07-11T22:00:00.676Z,100568.51
2018-07-11T22:02:29.485Z,100569.41
2018-07-11T22:04:58.306Z,100563.71
2018-07-11T22:07:26.791Z,100568.45
2018-07-11T22:09:57.286Z,100566.16
2018-07-11T22:12:26.170Z,100570.38
2018-07-11T22:14:56.524Z,100564.98
2018-07-11T22:17:34.824Z,100565.92
2018-07-11T22:20:03.436Z,100563.95
2018-07-11T22:22:30.749Z,100563.01
2018-07-11T22:24:58.047Z,100570.47
2018-07-11T22:27:25.667Z,100565.03
2018-07-11T22:29:52.922Z,100563.64
2018-07-11T22:32:20.230Z,100566.13
2018-07-11T22:34:48.780Z,100566.32
2018-07-11T22:37:16.064Z,100567.74
2018-07-11T22:39:43.404Z,100566.45
2018-07-11T22:42:12.459Z,100564.84
2018-07-11T22:44:39.715Z,100563.42
2018-07-11T22:47:07.083Z,100565.69
2018-07-11T22:52:13.367Z,100562.32
2018-07-11T22:54:40.699Z,100552.34
2018-07-11T22:57:08.029Z,100547.91
2018-07-11T22:59:35.355Z,100550.95
2018-07-11T23:02:09.527Z,100553.09
2018-07-11T23:04:36.828Z,100557.10
2018-07-11T23:07:04.127Z,100559.51
2018-07-11T23:09:35.163Z,100553.73
2018-07-11T23:12:03.860Z,100552.95
2018-07-11T23:14:31.976Z,100544.25
2018-07-11T23:17:01.020Z,100540.07
2018-07-11T23:19:28.459Z,100534.95
2018-07-11T23:21:55.889Z,100537.99
2018-07-11T23:24:24.186Z,100530.06
2018-07-11T23:26:51.637Z,100537.22
2018-07-11T23:29:18.910Z,100538.21
2018-07-11T23:31:47.971Z,100534.14
2018-07-11T23:34:15.245Z,100536.55
2018-07-11T23:36:42.630Z,100538.33
2018-07-11T23:39:11.169Z,100536.66
2018-07-11T23:41:38.459Z,100542.53
2018-07-11T23:44:05.927Z,100540.98
2018-07-11T23:46:33.608Z,100545.78
2018-07-11T23:49:00.877Z,100539.34
2018-07-11T23:51:32.920Z,100545.53
2018-07-11T23:54:00.927Z,100542.17
2018-07-11T23:59:02.423Z,100541.84
